sensor_id;sensor_type;location;lat;lon;timestamp;temperature;humidity
68385;DHT22;55336;43.062;25.626;2023-05-13T00:01:18;5.20;99.90
68385;DHT22;55336;43.062;25.626;2023-05-13T00:03:44;5.20;99.90
68385;DHT22;55336;43.062;25.626;2023-05-13T00:06:10;5.20;99.90
68385;DHT22;55336;43.062;25.626;2023-05-13T00:08:37;5.10;99.90
68385;DHT22;55336;43.062;25.626;2023-05-13T00:11:03;5.10;99.90
68385;DHT22;55336;43.062;25.626;2023-05-13T00:13:28;5.10;99.90
68385;DHT22;55336;43.062;25.626;2023-05-13T00:15:54;5.00;99.90
68385;DHT22;55336;43.062;25.626;2023-05-13T00:18:20;5.00;99.90
68385;DHT22;55336;43.062;25.626;2023-05-13T00:20:46;5.00;99.90
68385;DHT22;55336;43.062;25.626;2023-05-13T00:23:12;4.90;99.90
68385;DHT22;55336;43.062;25.626;2023-05-13T00:25:38;4.80;99.90
68385;DHT22;55336;43.062;25.626;2023-05-13T00:28:05;4.80;99.90
68385;DHT22;55336;43.062;25.626;2023-05-13T00:30:31;4.80;99.90
68385;DHT22;55336;43.062;25.626;2023-05-13T00:32:57;4.90;99.90
68385;DHT22;55336;43.062;25.626;2023-05-13T00:35:23;4.80;99.90
68385;DHT22;55336;43.062;25.626;2023-05-13T00:37:49;4.70;99.90
68385;DHT22;55336;43.062;25.626;2023-05-13T00:40:19;4.70;99.90
68385;DHT22;55336;43.062;25.626;2023-05-13T00:42:45;4.70;99.90
68385;DHT22;55336;43.062;25.626;2023-05-13T00:45:11;4.70;99.90
68385;DHT22;55336;43.062;25.626;2023-05-13T00:47:37;4.70;99.90
68385;DHT22;55336;43.062;25.626;2023-05-13T00:50:03;4.60;99.90
68385;DHT22;55336;43.062;25.626;2023-05-13T00:52:29;4.60;99.90
68385;DHT22;55336;43.062;25.626;2023-05-13T00:54:56;4.60;99.90
68385;DHT22;55336;43.062;25.626;2023-05-13T00:57:22;4.60;99.90
68385;DHT22;55336;43.062;25.626;2023-05-13T00:59:48;4.50;99.90
68385;DHT22;55336;43.062;25.626;2023-05-13T01:04:56;4.50;99.90
68385;DHT22;55336;43.062;25.626;2023-05-13T01:10:04;4.50;99.90
68385;DHT22;55336;43.062;25.626;2023-05-13T01:12:32;4.50;99.90
68385;DHT22;55336;43.062;25.626;2023-05-13T01:15:08;4.40;99.90
68385;DHT22;55336;43.062;25.626;2023-05-13T01:17:46;4.40;99.90
68385;DHT22;55336;43.062;25.626;2023-05-13T01:20:15;4.40;99.90
68385;DHT22;55336;43.062;25.626;2023-05-13T01:22:42;4.30;99.90
68385;DHT22;55336;43.062;25.626;2023-05-13T01:25:08;4.30;99.90
68385;DHT22;55336;43.062;25.626;2023-05-13T01:27:34;4.30;99.90
68385;DHT22;55336;43.062;25.626;2023-05-13T01:30:00;4.40;99.90
68385;DHT22;55336;43.062;25.626;2023-05-13T01:32:29;4.30;99.90
68385;DHT22;55336;43.062;25.626;2023-05-13T01:34:55;4.30;99.90
68385;DHT22;55336;43.062;25.626;2023-05-13T01:37:21;4.30;99.90
68385;DHT22;55336;43.062;25.626;2023-05-13T01:39:47;4.30;99.90
68385;DHT22;55336;43.062;25.626;2023-05-13T01:42:12;4.20;99.90
68385;DHT22;55336;43.062;25.626;2023-05-13T01:44:38;4.20;99.90
68385;DHT22;55336;43.062;25.626;2023-05-13T01:47:04;4.10;99.90
68385;DHT22;55336;43.062;25.626;2023-05-13T01:49:30;4.10;99.90
68385;DHT22;55336;43.062;25.626;2023-05-13T01:51:56;4.00;99.90
68385;DHT22;55336;43.062;25.626;2023-05-13T01:54:22;4.00;99.90
68385;DHT22;55336;43.062;25.626;2023-05-13T01:56:48;3.90;99.90
68385;DHT22;55336;43.062;25.626;2023-05-13T01:59:14;3.90;99.90
68385;DHT22;55336;43.062;25.626;2023-05-13T02:01:40;3.80;99.90
68385;DHT22;55336;43.062;25.626;2023-05-13T02:04:06;3.80;99.90
68385;DHT22;55336;43.062;25.626;2023-05-13T02:06:31;3.80;99.90
68385;DHT22;55336;43.062;25.626;2023-05-13T02:08:57;3.80;99.90
68385;DHT22;55336;43.062;25.626;2023-05-13T02:11:23;3.70;99.90
68385;DHT22;55336;43.062;25.626;2023-05-13T02:13:49;3.70;99.90
68385;DHT22;55336;43.062;25.626;2023-05-13T02:16:15;3.70;99.90
68385;DHT22;55336;43.062;25.626;2023-05-13T02:18:42;3.70;99.90
68385;DHT22;55336;43.062;25.626;2023-05-13T02:21:07;3.60;99.90
68385;DHT22;55336;43.062;25.626;2023-05-13T02:23:33;3.60;99.90
68385;DHT22;55336;43.062;25.626;2023-05-13T02:25:59;3.60;99.90
68385;DHT22;55336;43.062;25.626;2023-05-13T02:28:26;3.50;99.90
68385;DHT22;55336;43.062;25.626;2023-05-13T02:30:51;3.60;99.90
68385;DHT22;55336;43.062;25.626;2023-05-13T02:33:17;3.60;99.90
68385;DHT22;55336;43.062;25.626;2023-05-13T02:35:43;3.50;99.90
68385;DHT22;55336;43.062;25.626;2023-05-13T02:38:10;3.50;99.90
68385;DHT22;55336;43.062;25.626;2023-05-13T02:40:36;3.50;99.90
68385;DHT22;55336;43.062;25.626;2023-05-13T02:43:02;3.40;99.90
68385;DHT22;55336;43.062;25.626;2023-05-13T02:45:27;3.40;99.90
68385;DHT22;55336;43.062;25.626;2023-05-13T02:47:54;3.30;99.90
68385;DHT22;55336;43.062;25.626;2023-05-13T02:50:20;3.30;99.90
68385;DHT22;55336;43.062;25.626;2023-05-13T02:52:46;3.30;99.90
68385;DHT22;55336;43.062;25.626;2023-05-13T02:55:12;3.20;99.90
68385;DHT22;55336;43.062;25.626;2023-05-13T02:57:38;3.20;99.90
68385;DHT22;55336;43.062;25.626;2023-05-13T03:00:04;3.20;99.90
68385;DHT22;55336;43.062;25.626;2023-05-13T03:02:30;3.20;99.90
68385;DHT22;55336;43.062;25.626;2023-05-13T03:04:56;3.20;99.90
68385;DHT22;55336;43.062;25.626;2023-05-13T03:07:22;3.20;99.90
68385;DHT22;55336;43.062;25.626;2023-05-13T03:09:51;3.20;99.90
68385;DHT22;55336;43.062;25.626;2023-05-13T03:12:17;3.20;99.90
68385;DHT22;55336;43.062;25.626;2023-05-13T03:14:43;3.20;99.90
68385;DHT22;55336;43.062;25.626;2023-05-13T03:17:09;3.20;99.90
68385;DHT22;55336;43.062;25.626;2023-05-13T03:19:35;3.20;99.90
68385;DHT22;55336;43.062;25.626;2023-05-13T03:22:02;3.20;99.90
68385;DHT22;55336;43.062;25.626;2023-05-13T03:24:27;3.20;99.90
68385;DHT22;55336;43.062;25.626;2023-05-13T03:26:53;3.20;99.90
68385;DHT22;55336;43.062;25.626;2023-05-13T03:29:19;3.30;99.90
68385;DHT22;55336;43.062;25.626;2023-05-13T03:31:46;3.30;99.90
68385;DHT22;55336;43.062;25.626;2023-05-13T03:34:12;3.40;99.90
68385;DHT22;55336;43.062;25.626;2023-05-13T03:36:38;3.50;99.90
68385;DHT22;55336;43.062;25.626;2023-05-13T03:39:04;3.50;99.90
68385;DHT22;55336;43.062;25.626;2023-05-13T03:41:30;3.60;99.90
68385;DHT22;55336;43.062;25.626;2023-05-13T03:43:56;3.70;99.90
68385;DHT22;55336;43.062;25.626;2023-05-13T03:46:22;3.80;99.90
68385;DHT22;55336;43.062;25.626;2023-05-13T03:48:48;3.80;99.90
68385;DHT22;55336;43.062;25.626;2023-05-13T03:51:14;3.90;99.90
68385;DHT22;55336;43.062;25.626;2023-05-13T03:53:40;4.00;99.90
68385;DHT22;55336;43.062;25.626;2023-05-13T03:56:06;4.10;99.90
68385;DHT22;55336;43.062;25.626;2023-05-13T03:58:32;4.20;99.90
68385;DHT22;55336;43.062;25.626;2023-05-13T04:00:59;4.30;99.90
68385;DHT22;55336;43.062;25.626;2023-05-13T04:03:25;4.50;99.90
68385;DHT22;55336;43.062;25.626;2023-05-13T04:05:51;4.60;99.90
68385;DHT22;55336;43.062;25.626;2023-05-13T04:08:17;4.70;99.90
68385;DHT22;55336;43.062;25.626;2023-05-13T04:10:43;4.90;99.90
68385;DHT22;55336;43.062;25.626;2023-05-13T04:13:09;4.90;99.90
68385;DHT22;55336;43.062;25.626;2023-05-13T04:15:35;5.10;99.90
68385;DHT22;55336;43.062;25.626;2023-05-13T04:18:01;5.30;99.90
68385;DHT22;55336;43.062;25.626;2023-05-13T04:20:27;5.50;99.90
68385;DHT22;55336;43.062;25.626;2023-05-13T04:22:53;5.80;99.90
68385;DHT22;55336;43.062;25.626;2023-05-13T04:25:19;6.00;99.90
68385;DHT22;55336;43.062;25.626;2023-05-13T04:27:45;6.30;99.90
68385;DHT22;55336;43.062;25.626;2023-05-13T04:30:12;6.30;99.90
68385;DHT22;55336;43.062;25.626;2023-05-13T04:32:38;6.60;99.90
68385;DHT22;55336;43.062;25.626;2023-05-13T04:35:06;7.00;99.90
68385;DHT22;55336;43.062;25.626;2023-05-13T04:37:32;7.30;99.90
68385;DHT22;55336;43.062;25.626;2023-05-13T04:39:58;7.30;99.90
68385;DHT22;55336;43.062;25.626;2023-05-13T04:42:24;7.80;99.90
68385;DHT22;55336;43.062;25.626;2023-05-13T04:44:49;8.00;99.90
68385;DHT22;55336;43.062;25.626;2023-05-13T04:47:15;8.20;99.90
68385;DHT22;55336;43.062;25.626;2023-05-13T04:49:42;8.50;99.90
68385;DHT22;55336;43.062;25.626;2023-05-13T04:52:08;8.80;99.90
68385;DHT22;55336;43.062;25.626;2023-05-13T04:54:37;9.20;99.90
68385;DHT22;55336;43.062;25.626;2023-05-13T04:57:04;9.50;99.90
68385;DHT22;55336;43.062;25.626;2023-05-13T04:59:30;9.70;99.90
68385;DHT22;55336;43.062;25.626;2023-05-13T05:01:55;9.90;99.90
68385;DHT22;55336;43.062;25.626;2023-05-13T05:04:21;10.10;99.90
68385;DHT22;55336;43.062;25.626;2023-05-13T05:06:47;10.30;99.90
68385;DHT22;55336;43.062;25.626;2023-05-13T05:09:13;10.60;99.90
68385;DHT22;55336;43.062;25.626;2023-05-13T05:11:39;10.60;99.90
68385;DHT22;55336;43.062;25.626;2023-05-13T05:14:05;10.80;99.90
68385;DHT22;55336;43.062;25.626;2023-05-13T05:16:31;11.00;99.90
68385;DHT22;55336;43.062;25.626;2023-05-13T05:18:57;11.30;99.90
68385;DHT22;55336;43.062;25.626;2023-05-13T05:21:22;11.60;99.90
68385;DHT22;55336;43.062;25.626;2023-05-13T05:23:49;12.00;99.90
68385;DHT22;55336;43.062;25.626;2023-05-13T05:26:15;12.20;99.90
68385;DHT22;55336;43.062;25.626;2023-05-13T05:28:41;12.70;99.90
68385;DHT22;55336;43.062;25.626;2023-05-13T05:31:08;13.30;99.90
68385;DHT22;55336;43.062;25.626;2023-05-13T05:33:35;14.00;94.50
68385;DHT22;55336;43.062;25.626;2023-05-13T05:36:01;14.60;88.00
68385;DHT22;55336;43.062;25.626;2023-05-13T05:38:27;15.20;82.20
68385;DHT22;55336;43.062;25.626;2023-05-13T05:40:54;15.30;81.10
68385;DHT22;55336;43.062;25.626;2023-05-13T05:43:20;15.80;73.70
68385;DHT22;55336;43.062;25.626;2023-05-13T05:45:46;15.90;73.50
68385;DHT22;55336;43.062;25.626;2023-05-13T05:48:12;16.30;72.80
68385;DHT22;55336;43.062;25.626;2023-05-13T05:50:39;16.70;69.70
68385;DHT22;55336;43.062;25.626;2023-05-13T05:53:05;16.50;68.50
68385;DHT22;55336;43.062;25.626;2023-05-13T05:55:31;16.20;67.90
68385;DHT22;55336;43.062;25.626;2023-05-13T05:57:57;16.00;65.10
68385;DHT22;55336;43.062;25.626;2023-05-13T06:00:28;16.70;64.40
68385;DHT22;55336;43.062;25.626;2023-05-13T06:02:54;16.40;69.50
68385;DHT22;55336;43.062;25.626;2023-05-13T06:05:21;17.20;63.70
68385;DHT22;55336;43.062;25.626;2023-05-13T06:07:47;16.40;60.70
68385;DHT22;55336;43.062;25.626;2023-05-13T06:10:13;17.20;58.40
68385;DHT22;55336;43.062;25.626;2023-05-13T06:12:40;18.40;57.90
68385;DHT22;55336;43.062;25.626;2023-05-13T06:15:09;19.10;52.60
68385;DHT22;55336;43.062;25.626;2023-05-13T06:17:38;18.70;52.80
68385;DHT22;55336;43.062;25.626;2023-05-13T06:20:04;18.60;53.50
68385;DHT22;55336;43.062;25.626;2023-05-13T06:22:30;18.40;53.60
68385;DHT22;55336;43.062;25.626;2023-05-13T06:24:56;19.30;53.40
68385;DHT22;55336;43.062;25.626;2023-05-13T06:27:25;19.60;49.20
68385;DHT22;55336;43.062;25.626;2023-05-13T06:29:51;20.20;47.70
68385;DHT22;55336;43.062;25.626;2023-05-13T06:32:17;21.10;45.80
68385;DHT22;55336;43.062;25.626;2023-05-13T06:34:43;21.40;44.60
68385;DHT22;55336;43.062;25.626;2023-05-13T06:37:14;21.30;44.00
68385;DHT22;55336;43.062;25.626;2023-05-13T06:39:40;21.80;43.10
68385;DHT22;55336;43.062;25.626;2023-05-13T06:42:06;22.00;40.50
68385;DHT22;55336;43.062;25.626;2023-05-13T06:44:32;21.40;40.10
68385;DHT22;55336;43.062;25.626;2023-05-13T06:46:58;21.90;40.40
68385;DHT22;55336;43.062;25.626;2023-05-13T06:49:26;22.00;37.10
68385;DHT22;55336;43.062;25.626;2023-05-13T06:51:52;21.70;38.90
68385;DHT22;55336;43.062;25.626;2023-05-13T06:54:18;22.50;36.90
68385;DHT22;55336;43.062;25.626;2023-05-13T06:56:44;23.10;35.50
68385;DHT22;55336;43.062;25.626;2023-05-13T06:59:17;23.20;31.90
68385;DHT22;55336;43.062;25.626;2023-05-13T07:01:45;23.00;32.60
68385;DHT22;55336;43.062;25.626;2023-05-13T07:04:11;22.90;32.70
68385;DHT22;55336;43.062;25.626;2023-05-13T07:06:36;22.20;32.20
68385;DHT22;55336;43.062;25.626;2023-05-13T07:09:02;22.00;32.50
68385;DHT22;55336;43.062;25.626;2023-05-13T07:11:28;22.10;34.50
68385;DHT22;55336;43.062;25.626;2023-05-13T07:13:54;21.70;34.50
68385;DHT22;55336;43.062;25.626;2023-05-13T07:16:21;21.40;34.30
68385;DHT22;55336;43.062;25.626;2023-05-13T07:18:48;20.90;33.70
68385;DHT22;55336;43.062;25.626;2023-05-13T07:21:14;21.30;34.40
68385;DHT22;55336;43.062;25.626;2023-05-13T07:23:40;21.30;34.00
68385;DHT22;55336;43.062;25.626;2023-05-13T07:26:06;20.90;35.10
68385;DHT22;55336;43.062;25.626;2023-05-13T07:28:32;20.90;37.60
68385;DHT22;55336;43.062;25.626;2023-05-13T07:30:58;21.10;36.30
68385;DHT22;55336;43.062;25.626;2023-05-13T07:33:24;21.40;34.90
68385;DHT22;55336;43.062;25.626;2023-05-13T07:35:50;21.80;35.50
68385;DHT22;55336;43.062;25.626;2023-05-13T07:38:18;22.30;33.00
68385;DHT22;55336;43.062;25.626;2023-05-13T07:40:44;22.00;34.10
68385;DHT22;55336;43.062;25.626;2023-05-13T07:43:10;21.90;33.90
68385;DHT22;55336;43.062;25.626;2023-05-13T07:45:37;22.10;32.10
68385;DHT22;55336;43.062;25.626;2023-05-13T07:48:07;22.10;32.10
68385;DHT22;55336;43.062;25.626;2023-05-13T07:50:34;22.30;32.30
68385;DHT22;55336;43.062;25.626;2023-05-13T07:53:01;21.60;32.70
68385;DHT22;55336;43.062;25.626;2023-05-13T07:55:27;21.20;36.10
68385;DHT22;55336;43.062;25.626;2023-05-13T07:57:53;21.40;36.50
68385;DHT22;55336;43.062;25.626;2023-05-13T08:00:19;20.70;35.70
68385;DHT22;55336;43.062;25.626;2023-05-13T08:02:45;21.50;34.20
68385;DHT22;55336;43.062;25.626;2023-05-13T08:05:12;22.00;32.90
68385;DHT22;55336;43.062;25.626;2023-05-13T08:07:41;22.20;29.40
68385;DHT22;55336;43.062;25.626;2023-05-13T08:10:07;22.20;29.10
68385;DHT22;55336;43.062;25.626;2023-05-13T08:12:33;21.90;29.50
68385;DHT22;55336;43.062;25.626;2023-05-13T08:14:59;21.20;30.40
68385;DHT22;55336;43.062;25.626;2023-05-13T08:17:31;21.90;29.90
68385;DHT22;55336;43.062;25.626;2023-05-13T08:19:56;21.80;30.00
68385;DHT22;55336;43.062;25.626;2023-05-13T08:22:24;21.80;28.70
68385;DHT22;55336;43.062;25.626;2023-05-13T08:24:51;21.90;28.30
68385;DHT22;55336;43.062;25.626;2023-05-13T08:27:19;21.80;28.70
68385;DHT22;55336;43.062;25.626;2023-05-13T08:29:46;21.70;30.90
68385;DHT22;55336;43.062;25.626;2023-05-13T08:32:11;22.10;31.40
68385;DHT22;55336;43.062;25.626;2023-05-13T08:34:37;21.90;29.80
68385;DHT22;55336;43.062;25.626;2023-05-13T08:37:04;22.10;29.20
68385;DHT22;55336;43.062;25.626;2023-05-13T08:39:30;22.20;29.00
68385;DHT22;55336;43.062;25.626;2023-05-13T08:41:56;22.70;30.10
68385;DHT22;55336;43.062;25.626;2023-05-13T08:44:23;22.70;31.10
68385;DHT22;55336;43.062;25.626;2023-05-13T08:46:57;22.80;31.90
68385;DHT22;55336;43.062;25.626;2023-05-13T08:49:24;23.20;31.90
68385;DHT22;55336;43.062;25.626;2023-05-13T08:51:51;23.70;28.20
68385;DHT22;55336;43.062;25.626;2023-05-13T08:54:17;24.60;25.80
68385;DHT22;55336;43.062;25.626;2023-05-13T08:56:42;25.20;25.50
68385;DHT22;55336;43.062;25.626;2023-05-13T08:59:13;24.70;24.90
68385;DHT22;55336;43.062;25.626;2023-05-13T09:01:39;25.70;24.10
68385;DHT22;55336;43.062;25.626;2023-05-13T09:04:06;26.00;23.40
68385;DHT22;55336;43.062;25.626;2023-05-13T09:06:37;25.00;27.20
68385;DHT22;55336;43.062;25.626;2023-05-13T09:09:02;25.00;26.00
68385;DHT22;55336;43.062;25.626;2023-05-13T09:11:30;24.20;27.10
68385;DHT22;55336;43.062;25.626;2023-05-13T09:14:00;23.50;28.40
68385;DHT22;55336;43.062;25.626;2023-05-13T09:16:27;24.90;25.80
68385;DHT22;55336;43.062;25.626;2023-05-13T09:18:57;25.80;23.60
68385;DHT22;55336;43.062;25.626;2023-05-13T09:21:29;26.20;23.00
68385;DHT22;55336;43.062;25.626;2023-05-13T09:24:13;25.90;23.20
68385;DHT22;55336;43.062;25.626;2023-05-13T09:26:43;26.10;22.00
68385;DHT22;55336;43.062;25.626;2023-05-13T09:29:27;26.60;21.00
68385;DHT22;55336;43.062;25.626;2023-05-13T09:31:54;27.20;22.30
68385;DHT22;55336;43.062;25.626;2023-05-13T09:34:26;26.80;19.80
68385;DHT22;55336;43.062;25.626;2023-05-13T09:37:06;27.40;20.20
68385;DHT22;55336;43.062;25.626;2023-05-13T09:39:33;26.60;18.70
68385;DHT22;55336;43.062;25.626;2023-05-13T09:42:05;26.40;23.20
68385;DHT22;55336;43.062;25.626;2023-05-13T09:44:31;26.40;22.40
68385;DHT22;55336;43.062;25.626;2023-05-13T09:46:58;26.50;20.90
68385;DHT22;55336;43.062;25.626;2023-05-13T09:49:26;27.20;21.30
68385;DHT22;55336;43.062;25.626;2023-05-13T09:51:59;27.40;19.90
68385;DHT22;55336;43.062;25.626;2023-05-13T09:54:32;27.90;19.50
68385;DHT22;55336;43.062;25.626;2023-05-13T09:56:58;27.70;19.70
68385;DHT22;55336;43.062;25.626;2023-05-13T09:59:27;27.60;19.10
68385;DHT22;55336;43.062;25.626;2023-05-13T10:02:05;27.20;20.90
68385;DHT22;55336;43.062;25.626;2023-05-13T10:04:31;27.40;19.30
68385;DHT22;55336;43.062;25.626;2023-05-13T10:06:59;27.10;20.10
68385;DHT22;55336;43.062;25.626;2023-05-13T10:09:26;27.30;21.00
68385;DHT22;55336;43.062;25.626;2023-05-13T10:11:53;27.20;21.70
68385;DHT22;55336;43.062;25.626;2023-05-13T10:14:21;27.70;21.70
68385;DHT22;55336;43.062;25.626;2023-05-13T10:16:47;27.30;21.70
68385;DHT22;55336;43.062;25.626;2023-05-13T10:19:14;27.70;20.30
68385;DHT22;55336;43.062;25.626;2023-05-13T10:21:40;27.60;20.70
68385;DHT22;55336;43.062;25.626;2023-05-13T10:30:18;27.00;22.20
68385;DHT22;55336;43.062;25.626;2023-05-13T10:32:44;26.50;22.40
68385;DHT22;55336;43.062;25.626;2023-05-13T10:35:16;25.40;22.80
68385;DHT22;55336;43.062;25.626;2023-05-13T10:42:43;26.70;20.50
68385;DHT22;55336;43.062;25.626;2023-05-13T10:45:15;26.50;21.40
68385;DHT22;55336;43.062;25.626;2023-05-13T10:47:47;24.40;24.80
68385;DHT22;55336;43.062;25.626;2023-05-13T10:50:23;26.00;24.90
68385;DHT22;55336;43.062;25.626;2023-05-13T10:52:49;27.40;22.80
68385;DHT22;55336;43.062;25.626;2023-05-13T10:55:17;28.40;20.30
68385;DHT22;55336;43.062;25.626;2023-05-13T11:00:29;28.50;18.20
68385;DHT22;55336;43.062;25.626;2023-05-13T11:05:59;26.50;23.90
68385;DHT22;55336;43.062;25.626;2023-05-13T11:08:44;26.10;22.90
68385;DHT22;55336;43.062;25.626;2023-05-13T11:13:49;25.50;23.40
68385;DHT22;55336;43.062;25.626;2023-05-13T11:16:15;25.80;24.70
68385;DHT22;55336;43.062;25.626;2023-05-13T11:18:41;26.80;21.90
68385;DHT22;55336;43.062;25.626;2023-05-13T11:21:07;26.90;22.00
68385;DHT22;55336;43.062;25.626;2023-05-13T11:23:48;27.70;21.00
68385;DHT22;55336;43.062;25.626;2023-05-13T11:26:15;29.00;21.80
68385;DHT22;55336;43.062;25.626;2023-05-13T11:28:58;28.30;20.10
68385;DHT22;55336;43.062;25.626;2023-05-13T11:31:25;28.30;20.40
68385;DHT22;55336;43.062;25.626;2023-05-13T11:36:36;28.50;20.40
68385;DHT22;55336;43.062;25.626;2023-05-13T11:39:11;28.80;19.60
68385;DHT22;55336;43.062;25.626;2023-05-13T11:41:59;29.30;19.50
68385;DHT22;55336;43.062;25.626;2023-05-13T11:44:32;29.40;17.80
68385;DHT22;55336;43.062;25.626;2023-05-13T11:46:59;29.10;19.90
68385;DHT22;55336;43.062;25.626;2023-05-13T11:49:29;29.00;19.70
68385;DHT22;55336;43.062;25.626;2023-05-13T11:51:57;29.30;21.00
68385;DHT22;55336;43.062;25.626;2023-05-13T11:54:23;29.50;19.80
68385;DHT22;55336;43.062;25.626;2023-05-13T11:56:49;28.90;19.70
68385;DHT22;55336;43.062;25.626;2023-05-13T11:59:15;28.00;20.80
68385;DHT22;55336;43.062;25.626;2023-05-13T12:01:40;27.90;20.30
68385;DHT22;55336;43.062;25.626;2023-05-13T12:04:09;27.60;20.30
68385;DHT22;55336;43.062;25.626;2023-05-13T12:07:09;28.30;22.70
68385;DHT22;55336;43.062;25.626;2023-05-13T12:09:35;28.10;20.50
68385;DHT22;55336;43.062;25.626;2023-05-13T12:12:01;28.90;20.10
68385;DHT22;55336;43.062;25.626;2023-05-13T12:14:27;29.10;19.70
68385;DHT22;55336;43.062;25.626;2023-05-13T12:16:55;28.80;19.10
68385;DHT22;55336;43.062;25.626;2023-05-13T12:19:21;28.90;19.20
68385;DHT22;55336;43.062;25.626;2023-05-13T12:21:51;29.20;20.90
68385;DHT22;55336;43.062;25.626;2023-05-13T12:24:20;29.20;19.30
68385;DHT22;55336;43.062;25.626;2023-05-13T12:26:51;28.10;22.70
68385;DHT22;55336;43.062;25.626;2023-05-13T12:29:21;28.30;22.40
68385;DHT22;55336;43.062;25.626;2023-05-13T12:32:02;27.40;25.30
68385;DHT22;55336;43.062;25.626;2023-05-13T12:34:32;27.80;23.80
68385;DHT22;55336;43.062;25.626;2023-05-13T12:37:09;28.30;24.30
68385;DHT22;55336;43.062;25.626;2023-05-13T12:39:42;28.30;23.00
68385;DHT22;55336;43.062;25.626;2023-05-13T12:42:14;28.20;23.40
68385;DHT22;55336;43.062;25.626;2023-05-13T12:44:40;27.90;22.60
68385;DHT22;55336;43.062;25.626;2023-05-13T12:47:06;28.00;23.70
68385;DHT22;55336;43.062;25.626;2023-05-13T12:49:35;28.40;24.30
68385;DHT22;55336;43.062;25.626;2023-05-13T12:52:00;28.30;24.80
68385;DHT22;55336;43.062;25.626;2023-05-13T12:54:29;28.30;23.30
68385;DHT22;55336;43.062;25.626;2023-05-13T12:56:55;28.30;25.00
68385;DHT22;55336;43.062;25.626;2023-05-13T12:59:21;27.90;22.90
68385;DHT22;55336;43.062;25.626;2023-05-13T13:01:47;28.20;23.60
68385;DHT22;55336;43.062;25.626;2023-05-13T13:04:14;28.50;22.70
68385;DHT22;55336;43.062;25.626;2023-05-13T13:06:41;28.30;22.60
68385;DHT22;55336;43.062;25.626;2023-05-13T13:09:07;29.00;20.80
68385;DHT22;55336;43.062;25.626;2023-05-13T13:11:33;29.40;19.20
68385;DHT22;55336;43.062;25.626;2023-05-13T13:13:58;29.30;19.30
68385;DHT22;55336;43.062;25.626;2023-05-13T13:16:24;27.90;22.70
68385;DHT22;55336;43.062;25.626;2023-05-13T13:18:52;26.40;25.80
68385;DHT22;55336;43.062;25.626;2023-05-13T13:21:22;26.80;24.20
68385;DHT22;55336;43.062;25.626;2023-05-13T13:23:48;27.90;23.60
68385;DHT22;55336;43.062;25.626;2023-05-13T13:26:15;28.90;22.10
68385;DHT22;55336;43.062;25.626;2023-05-13T13:28:41;29.30;21.00
68385;DHT22;55336;43.062;25.626;2023-05-13T13:31:08;29.20;20.90
68385;DHT22;55336;43.062;25.626;2023-05-13T13:33:36;28.90;22.10
68385;DHT22;55336;43.062;25.626;2023-05-13T13:36:02;29.20;21.30
68385;DHT22;55336;43.062;25.626;2023-05-13T13:38:28;29.60;19.90
68385;DHT22;55336;43.062;25.626;2023-05-13T13:41:00;29.70;23.00
68385;DHT22;55336;43.062;25.626;2023-05-13T13:43:26;29.10;22.10
68385;DHT22;55336;43.062;25.626;2023-05-13T13:45:52;29.30;20.00
68385;DHT22;55336;43.062;25.626;2023-05-13T13:48:19;28.20;22.10
68385;DHT22;55336;43.062;25.626;2023-05-13T13:50:45;29.30;21.40
68385;DHT22;55336;43.062;25.626;2023-05-13T13:53:11;29.70;19.90
68385;DHT22;55336;43.062;25.626;2023-05-13T13:55:42;29.30;20.50
68385;DHT22;55336;43.062;25.626;2023-05-13T13:58:09;28.00;24.20
68385;DHT22;55336;43.062;25.626;2023-05-13T14:00:38;28.30;23.00
68385;DHT22;55336;43.062;25.626;2023-05-13T14:03:03;28.50;21.30
68385;DHT22;55336;43.062;25.626;2023-05-13T14:05:29;28.60;20.80
68385;DHT22;55336;43.062;25.626;2023-05-13T14:07:58;28.50;20.50
68385;DHT22;55336;43.062;25.626;2023-05-13T14:10:24;28.70;20.30
68385;DHT22;55336;43.062;25.626;2023-05-13T14:12:49;28.80;20.80
68385;DHT22;55336;43.062;25.626;2023-05-13T14:15:17;28.70;20.40
68385;DHT22;55336;43.062;25.626;2023-05-13T14:17:55;28.00;21.40
68385;DHT22;55336;43.062;25.626;2023-05-13T14:20:21;27.60;22.50
68385;DHT22;55336;43.062;25.626;2023-05-13T14:22:53;27.70;21.80
68385;DHT22;55336;43.062;25.626;2023-05-13T14:25:22;26.40;23.90
68385;DHT22;55336;43.062;25.626;2023-05-13T14:28:17;27.70;22.70
68385;DHT22;55336;43.062;25.626;2023-05-13T14:30:50;27.80;21.90
68385;DHT22;55336;43.062;25.626;2023-05-13T14:33:19;27.50;23.10
68385;DHT22;55336;43.062;25.626;2023-05-13T14:35:45;27.60;21.80
68385;DHT22;55336;43.062;25.626;2023-05-13T14:38:11;27.70;22.00
68385;DHT22;55336;43.062;25.626;2023-05-13T14:40:38;27.40;24.10
68385;DHT22;55336;43.062;25.626;2023-05-13T14:43:05;27.70;22.70
68385;DHT22;55336;43.062;25.626;2023-05-13T14:45:31;27.90;22.00
68385;DHT22;55336;43.062;25.626;2023-05-13T14:48:00;28.30;20.50
68385;DHT22;55336;43.062;25.626;2023-05-13T14:50:25;28.30;20.90
68385;DHT22;55336;43.062;25.626;2023-05-13T14:52:51;28.30;20.60
68385;DHT22;55336;43.062;25.626;2023-05-13T14:55:17;27.40;21.70
68385;DHT22;55336;43.062;25.626;2023-05-13T14:57:45;27.80;22.10
68385;DHT22;55336;43.062;25.626;2023-05-13T15:00:14;28.10;22.40
68385;DHT22;55336;43.062;25.626;2023-05-13T15:02:40;27.80;20.80
68385;DHT22;55336;43.062;25.626;2023-05-13T15:05:07;26.90;23.50
68385;DHT22;55336;43.062;25.626;2023-05-13T15:07:32;27.70;22.10
68385;DHT22;55336;43.062;25.626;2023-05-13T15:09:59;28.00;22.50
68385;DHT22;55336;43.062;25.626;2023-05-13T15:12:30;26.70;24.00
68385;DHT22;55336;43.062;25.626;2023-05-13T15:15:02;27.70;21.80
68385;DHT22;55336;43.062;25.626;2023-05-13T15:17:28;28.00;20.60
68385;DHT22;55336;43.062;25.626;2023-05-13T15:20:06;28.30;20.30
68385;DHT22;55336;43.062;25.626;2023-05-13T15:22:36;28.30;21.40
68385;DHT22;55336;43.062;25.626;2023-05-13T15:25:01;28.60;20.40
68385;DHT22;55336;43.062;25.626;2023-05-13T15:27:27;28.30;23.30
68385;DHT22;55336;43.062;25.626;2023-05-13T15:29:53;28.00;23.10
68385;DHT22;55336;43.062;25.626;2023-05-13T15:32:19;28.20;22.60
68385;DHT22;55336;43.062;25.626;2023-05-13T15:34:47;28.30;21.80
68385;DHT22;55336;43.062;25.626;2023-05-13T15:37:17;28.40;21.90
68385;DHT22;55336;43.062;25.626;2023-05-13T15:39:43;28.10;21.20
68385;DHT22;55336;43.062;25.626;2023-05-13T15:42:09;28.10;21.80
68385;DHT22;55336;43.062;25.626;2023-05-13T15:44:35;28.20;20.90
68385;DHT22;55336;43.062;25.626;2023-05-13T15:47:05;28.20;24.10
68385;DHT22;55336;43.062;25.626;2023-05-13T15:49:31;28.10;22.30